Aérodrome :
LOGIN :

S'inscrire | Disclaimer

   EN    FR    IT 

 










Légende :    VFR   VFR Marginal   IFR   IFR Intensif   IFR Très Intensif
Visi : 
Plafond : 
>= 8 km
>= 3000ft
5 à 8 km
1000 à 3000 ft
1500m à 5 km
500 à 1000 ft
800 à 1500m
200 à 500 ft
< 800m
< 200 ft
Symboles :   Orages  Brouillard  Fortes neiges  Fortes précipitations  Vent > 20 kt
SIGMETs :   Divers  Orages  Givrage  Turbulence  Onde Orograph.  Cendres Volcan.







- Altitude de l'aérodrome : 659 ft
- Code IATA : LGG


EBLG - Liège

DERNIER METAR :
  • 210250Z 15008KT CAVOK 10/07 Q1021 NOSIG

METARs EXPIRÉS :
  • 210220Z 16009KT 130V190 CAVOK 10/07 Q1021 NOSIG
  • 210150Z 15007KT CAVOK 10/07 Q1021 NOSIG
  • 210120Z 16009KT CAVOK 10/07 Q1021 NOSIG
  • 210050Z 15008KT CAVOK 10/07 Q1021 NOSIG
  • 210020Z 16008KT CAVOK 10/07 Q1021 NOSIG
  • 202350Z 16007KT CAVOK 11/08 Q1021 NOSIG

TAF TAF EBLG
Valide du 21 à 00h jusqu'au 22 à 06h UTC


202310Z 2100/2206 16007KT CAVOK
Pas de NOTAMs connus pour ce terrain.



MET'MAP, la Météo Aéronautique d'un coup d'oeil ! - Copyright ORBIFLY Décembre 2007 - Disclaimer

ORBIFLY MET'MAP TEAM :

Programmation & Développement : Alexandra Zaïnal
Conception & Développement : Baudouin d'Aumeries
Co-Programmation & Développement : Marc-Olivier Méhu
Soutien technique & logistique : Manuel Goepfert

Contact : metmap@orbifly.com




SOURCES & CREDITS :

   NOAA